Snyder, Texas
Current Conditions -  °F | °C
As of 6:35 AM on Monday 22 Dec 2014 (Local Time) from KSNK Reporting Station
Clear Clear  
Wind Chill: 41°   Ceiling: Unl
Heat Index: 46°   Visibility: 10mi
Dew Point: 31°   Wind: 9mph
Humidity: 56%   Direction: 260°W
Pressure: 29.66"   Gusts: NA
Location:  32.72°N, 100.91°W
Report Text: KSNK 221235Z AUTO 26008KT 10SM CLR 08/00 A2966 RMK AO2 T00781005
Loading
Personal Weather Stations






























Interactive Weather Map New forecast layout! Learn more

10-Day Weather Forecast

Advertisements
Track Severe Weather on mobile